Here is the Quick Look data you requested

The Data originates at the National Weather Service, and is made available here by the UAlbany Department of Atmospheric and Environmental Sciences

Surface Observations

KACK 230953Z 29006KT 10SM CLR 00/00 A2990 RMK AO2 SLP124 T00000000=
KAQW 230952Z AUTO 31003KT 10SM CLR M05/M07 A2997 RMK AO2 SLP155 T10501072=
KBAF 230953Z AUTO 00000KT 10SM CLR 00/M06 A2994 RMK AO2 SLP144 T00001061=
KBED 230956Z AUTO 27005KT 10SM CLR M01/M07 A2990 RMK AO2 SLP140 T10111067=
KBOS 230954Z 30009KT 10SM FEW250 02/M06 A2991 RMK AO2 SLP126 T00171061=
KBVY 230953Z AUTO 31005KT 10SM CLR M01/M06 A2989 RMK AO2 SLP119 T10061061=
KCEF 230956Z AUTO 00000KT 10SM CLR M02/M08 A2993 RMK AO2 SLP143 T10191078=
KCQX 230952Z AUTO 00000KT 10SM CLR M01/M02 A2990 RMK AO2 SLP125 T10061017=
KEWB 230953Z 00000KT 10SM CLR M03/M04 A2990 RMK AO2 SLP127 I1001 T10331044 $=
KFIT 230952Z AUTO 32005KT 10SM CLR 01/M06 A2992 RMK AO2 SLP133 T00111061=
KFMH 230955Z AUTO 31004KT 10SM M02/M03 A2991 RMK AO2=
KHYA 230956Z 29003KT 10SM CLR 00/M02 A2988 RMK AO2 SLP120 T00001022=
KLWM 230954Z AUTO 00000KT 10SM CLR 02/M07 A2991 RMK AO2 SLP129 T00171067=
KMVY 230953Z AUTO 00000KT 10SM CLR M02/M04 A2990 RMK AO2 SLP126 T10171039=
KORE 230952Z AUTO 00000KT 10SM CLR M05/M06 A2993 RMK AO2 SLP142 T10501061=
KORH 230954Z 31013KT 10SM CLR M01/M08 A2988 RMK AO2 SLP127 T10111078 $=
KOWD 230953Z AUTO 00000KT 9SM CLR M03/M04 A2991 RMK AO2 SLP129 I1001 T10281044=
KPSF 230954Z AUTO 28008KT 10SM CLR M02/M07 A2993 RMK AO2 SLP139 T10221072=
KPVC 230956Z AUTO 32008KT 10SM CLR 02/M02 A2990 RMK AO2 SLP125 T00221022 FZRANO=
KPYM 230952Z AUTO 29003KT 10SM CLR M01/M03 A2990 RMK AO2 SLP127 T10111033 $=
KTAN 230952Z AUTO 00000KT 9SM CLR M04/M06 A2991 RMK AO2 SLP127 I1000 T10391056